Time;durP1;ratioP1;P1;durP2;ratioP2;P2;SDS_P1;SDS_P2;PMS_P1;PMS_P2;Temp;Humidity;BMP_temperature;BMP_pressure;BME280_temperature;BME280_humidity;BME280_pressure;Samples;Min_cycle;Max_cycle;Signal;HPM_P1;HPM_P2
2023/03/03 00:00:49;;;;;;;53.53;14.77;;;0.90;99.90;;;;;;6372101;22;20705;-92
2023/03/03 00:03:22;;;;;;;60.93;16.13;;;1.00;99.90;;;;;;6372657;22;20499;-92
2023/03/03 00:05:49;;;;;;;49.43;17.33;;;0.90;57.60;;;;;;6372912;22;20153;-92
2023/03/03 00:08:16;;;;;;;68.60;16.63;;;0.90;99.90;;;;;;6372351;22;20695;-92
2023/03/03 00:10:43;;;;;;;67.33;15.70;;;0.90;99.90;;;;;;6372892;22;20215;-92
2023/03/03 00:13:16;;;;;;;87.77;15.83;;;0.90;99.90;;;;;;6372299;22;20197;-92
2023/03/03 00:15:44;;;;;;;61.27;15.50;;;0.90;99.90;;;;;;6372524;22;20228;-91
2023/03/03 00:18:22;;;;;;;59.13;16.00;;;0.80;99.90;;;;;;6372266;22;20178;-93
2023/03/03 00:20:54;;;;;;;59.67;14.67;;;0.80;99.90;;;;;;6372539;22;20176;-92
2023/03/03 00:23:29;;;;;;;41.57;13.50;;;0.90;99.90;;;;;;6372099;22;20171;-92
2023/03/03 00:25:58;;;;;;;63.33;14.40;;;0.80;99.90;;;;;;6372141;22;20158;-91
2023/03/03 00:28:28;;;;;;;72.43;15.93;;;0.80;99.90;;;;;;6371831;22;20166;-91
2023/03/03 00:30:58;;;;;;;75.43;14.87;;;0.80;99.90;;;;;;6371611;22;20170;-91
2023/03/03 00:33:32;;;;;;;89.07;19.50;;;0.80;99.90;;;;;;6371808;22;20611;-91
2023/03/03 00:36:30;;;;;;;78.23;13.83;;;0.80;1.00;;;;;;6371976;22;20174;-92
2023/03/03 00:39:11;;;;;;;78.20;15.10;;;0.70;1.00;;;;;;6372495;22;20153;-92
2023/03/03 00:41:39;;;;;;;86.70;15.47;;;0.80;1.00;;;;;;6371655;22;20158;-92
2023/03/03 00:44:38;;;;;;;71.37;16.07;;;0.80;1.00;;;;;;6371763;22;20244;-91
2023/03/03 00:47:24;;;;;;;83.70;18.37;;;0.80;1.00;;;;;;6372188;22;20153;-91
2023/03/03 00:49:52;;;;;;;70.97;15.40;;;0.80;1.00;;;;;;6371575;22;20169;-91
2023/03/03 00:52:20;;;;;;;56.77;14.63;;;0.80;1.00;;;;;;6371307;22;20170;-92
2023/03/03 00:54:47;;;;;;;60.50;13.53;;;0.90;1.00;;;;;;6371909;22;20208;-91
2023/03/03 00:57:14;;;;;;;69.50;23.13;;;0.90;99.90;;;;;;6371655;22;20194;-91
2023/03/03 00:59:41;;;;;;;70.90;17.87;;;0.80;1.00;;;;;;6371414;22;20689;-91
2023/03/03 01:02:08;;;;;;;92.20;24.33;;;0.80;1.00;;;;;;6371171;22;20171;-91
2023/03/03 01:04:37;;;;;;;81.03;22.83;;;0.80;1.00;;;;;;6371521;22;20182;-91
2023/03/03 01:07:03;;;;;;;67.97;20.13;;;0.80;1.00;;;;;;6371874;22;20169;-91
2023/03/03 01:09:30;;;;;;;65.97;18.63;;;0.80;1.00;;;;;;6371242;22;20163;-91
2023/03/03 01:11:58;;;;;;;79.30;18.70;;;0.80;1.00;;;;;;6370821;22;20646;-91
2023/03/03 01:14:25;;;;;;;82.50;15.40;;;0.70;1.00;;;;;;6371260;22;20162;-90
2023/03/03 01:16:52;;;;;;;101.97;15.27;;;0.70;1.00;;;;;;6371213;22;20230;-91
2023/03/03 01:19:19;;;;;;;95.97;14.90;;;0.70;1.00;;;;;;6371550;22;20170;-90
2023/03/03 01:21:47;;;;;;;73.40;17.43;;;0.60;1.00;;;;;;6370912;22;20157;-91
2023/03/03 01:24:14;;;;;;;72.73;16.00;;;0.60;1.00;;;;;;6370897;22;20187;-91
2023/03/03 01:26:41;;;;;;;117.50;17.30;;;0.60;1.00;;;;;;6371036;22;20173;-91
2023/03/03 01:29:08;;;;;;;77.27;19.40;;;0.60;19.40;;;;;;6371254;22;20162;-91
2023/03/03 01:31:35;;;;;;;69.50;22.53;;;0.60;7.90;;;;;;6370885;22;20161;-90
2023/03/03 01:34:02;;;;;;;115.20;21.23;;;0.70;76.30;;;;;;6370974;22;20624;-90
2023/03/03 01:36:29;;;;;;;109.67;17.90;;;0.70;99.90;;;;;;6370699;22;20174;-91
2023/03/03 01:38:58;;;;;;;113.17;19.37;;;0.70;64.00;;;;;;6370402;22;20165;-90
2023/03/03 01:41:28;;;;;;;176.63;22.90;;;0.70;40.00;;;;;;6370045;22;20498;-90
2023/03/03 01:43:56;;;;;;;66.00;16.67;;;0.70;32.40;;;;;;6370669;22;20212;-90
2023/03/03 01:46:44;;;;;;;107.37;18.67;;;0.70;1.00;;;;;;6370552;22;20165;-91
2023/03/03 01:49:15;;;;;;;103.50;18.43;;;0.70;94.40;;;;;;6366193;22;20625;-90
2023/03/03 01:51:48;;;;;;;73.80;14.90;;;0.70;52.50;;;;;;6371043;22;20218;-90
2023/03/03 01:54:21;;;;;;;110.80;17.33;;;0.70;25.20;;;;;;6370928;22;20149;-90
2023/03/03 01:56:49;;;;;;;143.00;19.07;;;0.70;1.00;;;;;;6370582;22;20179;-90
2023/03/03 01:59:19;;;;;;;70.43;14.27;;;0.70;42.60;;;;;;6370229;22;20164;-91
2023/03/03 02:01:48;;;;;;;119.83;17.63;;;0.70;99.90;;;;;;6370380;22;20166;-90
2023/03/03 02:04:15;;;;;;;92.07;20.60;;;0.70;99.90;;;;;;6370477;22;20243;-90
2023/03/03 02:06:47;;;;;;;81.47;21.47;;;0.70;99.90;;;;;;6370865;22;20173;-91
2023/03/03 02:09:22;;;;;;;95.43;24.30;;;0.70;99.90;;;;;;6370850;22;20153;-90
2023/03/03 02:11:52;;;;;;;65.27;16.93;;;0.70;1.00;;;;;;6370632;22;20221;-90
2023/03/03 02:14:19;;;;;;;87.47;19.67;;;0.80;1.00;;;;;;6370755;22;20202;-91
2023/03/03 02:16:46;;;;;;;75.43;20.60;;;0.80;99.90;;;;;;6370727;22;20499;-91
2023/03/03 02:19:22;;;;;;;61.30;14.13;;;0.80;99.90;;;;;;6370519;22;20188;-91
2023/03/03 02:21:49;;;;;;;79.97;14.87;;;0.80;99.90;;;;;;6370837;22;20161;-90
2023/03/03 02:24:25;;;;;;;67.40;14.73;;;0.80;99.90;;;;;;6370313;22;20253;-91
2023/03/03 02:26:54;;;;;;;55.23;13.93;;;0.80;99.90;;;;;;6370388;22;20157;-90
2023/03/03 02:29:21;;;;;;;73.30;16.27;;;0.80;99.90;;;;;;6370371;22;20635;-90
2023/03/03 02:31:48;;;;;;;66.57;16.50;;;0.80;1.00;;;;;;6370638;22;20471;-91
2023/03/03 02:34:15;;;;;;;39.60;13.70;;;0.90;1.00;;;;;;6370884;22;20269;-91
2023/03/03 02:36:42;;;;;;;76.53;18.20;;;0.80;1.00;;;;;;6371697;22;20162;-91
2023/03/03 02:39:14;;;;;;;45.80;12.37;;;0.90;99.90;;;;;;6372368;22;20289;-91
2023/03/03 02:41:46;;;;;;;90.87;22.30;;;0.80;99.90;;;;;;6372529;22;20166;-91
2023/03/03 02:44:17;;;;;;;71.10;17.17;;;0.80;99.90;;;;;;6372691;22;20246;-92
2023/03/03 02:46:46;;;;;;;62.03;22.33;;;0.80;99.90;;;;;;6372782;22;20527;-91
2023/03/03 02:49:15;;;;;;;43.27;14.37;;;0.70;1.00;;;;;;6372729;22;20682;-90
2023/03/03 02:51:43;;;;;;;72.03;13.17;;;0.70;1.00;;;;;;6372489;22;20174;-91
2023/03/03 02:54:11;;;;;;;52.23;12.47;;;0.70;1.00;;;;;;6372639;22;20167;-91
2023/03/03 02:56:39;;;;;;;40.73;14.70;;;0.70;1.00;;;;;;6373150;22;20498;-91
2023/03/03 02:59:06;;;;;;;56.93;14.60;;;0.70;1.00;;;;;;6373121;22;20165;-91
2023/03/03 03:01:36;;;;;;;59.30;23.33;;;0.70;1.00;;;;;;6373115;22;20169;-91
2023/03/03 03:04:06;;;;;;;22.53;9.10;;;0.60;1.00;;;;;;6372682;22;20188;-90
2023/03/03 03:06:33;;;;;;;41.20;12.50;;;0.70;1.00;;;;;;6372373;22;20154;-90
2023/03/03 03:09:00;;;;;;;29.57;13.70;;;0.70;1.00;;;;;;6372907;22;20166;-90
2023/03/03 03:11:27;;;;;;;38.43;13.87;;;0.70;1.00;;;;;;6372575;22;20157;-90
2023/03/03 03:13:54;;;;;;;30.57;12.50;;;0.60;1.00;;;;;;6372788;22;20169;-90
2023/03/03 03:16:21;;;;;;;34.03;14.07;;;0.60;1.00;;;;;;6373069;22;20169;-90
2023/03/03 03:18:50;;;;;;;55.17;20.43;;;0.60;1.00;;;;;;6373168;22;20222;-91
2023/03/03 03:21:17;;;;;;;64.37;17.77;;;0.60;1.00;;;;;;6372556;22;20169;-91
2023/03/03 03:23:44;;;;;;;77.27;19.77;;;0.60;6.90;;;;;;6372616;22;20228;-91
2023/03/03 03:26:12;;;;;;;46.03;16.20;;;0.60;1.00;;;;;;6372613;22;20157;-91
2023/03/03 03:28:39;;;;;;;62.57;19.67;;;0.60;1.00;;;;;;6372454;22;20161;-91
2023/03/03 03:31:08;;;;;;;48.90;14.83;;;0.60;15.30;;;;;;6373005;22;20169;-92
2023/03/03 03:33:35;;;;;;;44.77;11.33;;;0.60;72.10;;;;;;6372543;22;20516;-90
2023/03/03 03:36:05;;;;;;;45.93;13.73;;;0.60;47.20;;;;;;6372287;22;20233;-90
2023/03/03 03:38:32;;;;;;;33.37;12.90;;;0.60;1.00;;;;;;6372989;22;20169;-91
2023/03/03 03:40:59;;;;;;;51.17;14.83;;;0.60;1.00;;;;;;6372385;22;20161;-90
2023/03/03 03:43:27;;;;;;;45.23;11.70;;;0.60;1.00;;;;;;6371919;22;20193;-90
2023/03/03 03:45:54;;;;;;;43.93;16.63;;;0.60;1.00;;;;;;6372082;22;20169;-90
2023/03/03 03:48:21;;;;;;;39.43;12.27;;;0.50;1.00;;;;;;6372066;22;20610;-92
2023/03/03 03:50:48;;;;;;;42.93;10.23;;;0.50;1.00;;;;;;6372542;22;20173;-91
2023/03/03 03:53:17;;;;;;;35.33;10.00;;;0.50;1.00;;;;;;6372229;22;20169;-90
2023/03/03 03:55:44;;;;;;;28.93;10.13;;;0.50;1.00;;;;;;6372498;22;20223;-91
2023/03/03 03:58:13;;;;;;;30.27;10.90;;;0.50;1.00;;;;;;6372446;22;20218;-92
2023/03/03 04:00:41;;;;;;;41.30;11.53;;;0.50;42.80;;;;;;6372653;22;20248;-90
2023/03/03 04:03:09;;;;;;;27.13;10.00;;;0.50;99.90;;;;;;6371925;22;20168;-91
2023/03/03 04:05:36;;;;;;;26.70;9.77;;;0.50;1.00;;;;;;6371687;22;20268;-90
2023/03/03 04:08:04;;;;;;;23.37;9.03;;;0.50;1.00;;;;;;6372265;22;20166;-91
2023/03/03 04:10:32;;;;;;;25.23;8.93;;;0.50;1.00;;;;;;6371793;22;20161;-90
2023/03/03 04:12:59;;;;;;;22.97;7.87;;;0.50;1.00;;;;;;6371475;22;20177;-90
2023/03/03 04:15:26;;;;;;;36.03;9.90;;;0.40;1.00;;;;;;6372065;22;20169;-91
2023/03/03 04:17:53;;;;;;;34.70;10.20;;;0.40;1.00;;;;;;6371945;22;20177;-90
2023/03/03 04:20:20;;;;;;;45.67;11.10;;;0.40;1.00;;;;;;6371399;22;20161;-91
2023/03/03 04:22:47;;;;;;;19.50;9.30;;;0.40;1.00;;;;;;6372161;22;20169;-90
2023/03/03 04:25:15;;;;;;;23.90;9.37;;;0.40;91.00;;;;;;6372057;22;20546;-91
2023/03/03 04:27:44;;;;;;;23.77;9.10;;;0.40;99.90;;;;;;6371811;22;20226;-90
2023/03/03 04:30:13;;;;;;;19.03;8.43;;;0.40;99.90;;;;;;6372263;22;20169;-91
2023/03/03 04:32:40;;;;;;;22.70;9.67;;;0.40;99.90;;;;;;6372077;22;20166;-90
2023/03/03 04:35:08;;;;;;;29.20;9.73;;;0.40;99.90;;;;;;6371612;22;20226;-90
2023/03/03 04:37:36;;;;;;;33.23;11.30;;;0.40;99.90;;;;;;6371693;22;20591;-90
2023/03/03 04:40:03;;;;;;;30.00;12.50;;;0.50;99.90;;;;;;6371454;22;20177;-90
2023/03/03 04:42:30;;;;;;;24.57;9.73;;;0.50;99.90;;;;;;6371444;22;20193;-90
2023/03/03 04:44:58;;;;;;;25.00;9.83;;;0.50;1.00;;;;;;6371759;22;20177;-90
2023/03/03 04:47:25;;;;;;;30.63;10.37;;;0.50;1.00;;;;;;6371768;22;20165;-91
2023/03/03 04:49:52;;;;;;;18.33;8.20;;;0.50;1.00;;;;;;6370943;22;20166;-90
2023/03/03 04:52:20;;;;;;;27.70;12.50;;;0.40;1.00;;;;;;6371505;22;20165;-90
2023/03/03 04:54:46;;;;;;;25.83;12.10;;;0.40;1.00;;;;;;6371678;22;20214;-90
2023/03/03 04:57:13;;;;;;;26.70;14.30;;;0.40;16.10;;;;;;6371216;22;20161;-88
2023/03/03 04:59:40;;;;;;;34.03;16.53;;;0.40;18.70;;;;;;6371851;22;20611;-91
2023/03/03 05:02:09;;;;;;;29.87;15.10;;;0.40;87.10;;;;;;6371674;22;20539;-90
2023/03/03 05:04:36;;;;;;;36.43;12.37;;;0.40;99.90;;;;;;6371174;22;20181;-91
2023/03/03 05:07:03;;;;;;;36.07;11.57;;;0.50;99.90;;;;;;6371057;22;20555;-90
2023/03/03 05:09:30;;;;;;;32.07;13.07;;;0.50;88.40;;;;;;6371716;22;20165;-91
2023/03/03 05:11:57;;;;;;;28.50;11.53;;;0.50;1.00;;;;;;6371207;22;20159;-90
2023/03/03 05:14:24;;;;;;;30.83;12.77;;;0.50;1.00;;;;;;6371313;22;20165;-90
2023/03/03 05:16:51;;;;;;;31.10;11.30;;;0.50;1.00;;;;;;6370766;22;20214;-91
2023/03/03 05:19:20;;;;;;;26.60;12.27;;;0.50;1.00;;;;;;6371782;22;20188;-90
2023/03/03 05:21:47;;;;;;;30.93;13.10;;;0.50;1.00;;;;;;6371002;22;20170;-91
2023/03/03 05:24:14;;;;;;;32.27;16.57;;;0.50;1.00;;;;;;6371205;22;20177;-90
2023/03/03 05:26:42;;;;;;;37.30;18.53;;;0.50;1.00;;;;;;6371396;22;20218;-91
2023/03/03 05:29:09;;;;;;;37.80;16.03;;;0.50;1.00;;;;;;6371381;22;20691;-90
2023/03/03 05:31:36;;;;;;;34.80;14.47;;;0.50;1.00;;;;;;6371250;22;20169;-90
2023/03/03 05:34:03;;;;;;;35.17;14.40;;;0.50;1.00;;;;;;6371657;22;20212;-91
2023/03/03 05:36:31;;;;;;;41.93;19.90;;;0.50;1.00;;;;;;6371397;22;20165;-91
2023/03/03 05:38:58;;;;;;;42.60;15.33;;;0.50;1.00;;;;;;6371119;22;20600;-91
2023/03/03 05:41:25;;;;;;;36.47;12.83;;;0.40;1.00;;;;;;6371109;22;20551;-90
2023/03/03 05:43:52;;;;;;;47.60;14.53;;;0.50;1.00;;;;;;6370653;22;20728;-90
2023/03/03 05:46:19;;;;;;;45.00;15.40;;;0.50;1.00;;;;;;6370627;22;20226;-89
2023/03/03 05:48:46;;;;;;;57.90;17.40;;;0.50;1.00;;;;;;6371035;22;20161;-89
2023/03/03 05:51:13;;;;;;;45.97;15.87;;;0.50;1.00;;;;;;6370221;22;20393;-90
2023/03/03 05:53:42;;;;;;;56.97;17.20;;;0.50;1.00;;;;;;6371063;22;20165;-90
2023/03/03 05:56:09;;;;;;;51.47;15.63;;;0.40;1.00;;;;;;6370821;22;20166;-89
2023/03/03 05:58:36;;;;;;;51.03;16.23;;;0.40;1.00;;;;;;6371379;22;20198;-91
2023/03/03 06:01:03;;;;;;;54.90;17.77;;;0.30;1.00;;;;;;6370605;22;20491;-91
2023/03/03 06:03:30;;;;;;;93.97;19.60;;;0.40;1.00;;;;;;6370616;22;20169;-90
2023/03/03 06:05:57;;;;;;;69.93;21.27;;;0.40;1.00;;;;;;6371585;22;20189;-91
2023/03/03 06:08:24;;;;;;;104.93;26.70;;;0.40;1.00;;;;;;6371460;22;20174;-91
2023/03/03 06:10:52;;;;;;;208.63;52.20;;;0.40;1.00;;;;;;6371442;22;20169;-91
2023/03/03 06:13:19;;;;;;;220.37;51.53;;;0.40;1.00;;;;;;6373391;22;20170;-91
2023/03/03 06:15:46;;;;;;;198.40;45.07;;;0.40;1.00;;;;;;6373112;22;20162;-90
2023/03/03 06:18:13;;;;;;;235.73;51.60;;;0.50;48.40;;;;;;6372584;22;20631;-90
2023/03/03 06:20:40;;;;;;;227.10;45.70;;;0.40;1.00;;;;;;6372177;22;20623;-90
2023/03/03 06:23:07;;;;;;;185.50;43.13;;;0.40;1.00;;;;;;6372466;22;20165;-90
2023/03/03 06:25:35;;;;;;;163.77;40.50;;;0.40;1.00;;;;;;6372957;22;20567;-90
2023/03/03 06:28:03;;;;;;;154.03;36.20;;;0.40;1.00;;;;;;6373114;22;20172;-90
2023/03/03 06:30:30;;;;;;;115.13;31.50;;;0.40;28.90;;;;;;6372656;22;20169;-89
2023/03/03 06:32:57;;;;;;;67.47;22.80;;;0.40;78.10;;;;;;6371502;22;20631;-89
2023/03/03 06:35:24;;;;;;;114.00;33.87;;;0.40;99.90;;;;;;6371776;22;20560;-89
2023/03/03 06:37:51;;;;;;;99.63;26.40;;;0.40;99.90;;;;;;6372119;22;20170;-89
2023/03/03 06:40:18;;;;;;;179.70;45.27;;;0.40;99.90;;;;;;6372338;22;20173;-89
2023/03/03 06:42:45;;;;;;;126.57;38.10;;;0.40;99.90;;;;;;6371766;22;20245;-89
2023/03/03 06:45:14;;;;;;;154.60;38.80;;;0.50;99.90;;;;;;6371193;22;20185;-90
2023/03/03 06:47:41;;;;;;;164.17;43.80;;;0.50;99.90;;;;;;6371944;22;20166;-90
2023/03/03 06:50:10;;;;;;;93.00;25.47;;;0.50;99.90;;;;;;6372094;22;20169;-91
2023/03/03 06:52:37;;;;;;;185.50;47.77;;;0.60;99.90;;;;;;6372358;22;20165;-91
2023/03/03 06:55:13;;;;;;;123.40;35.10;;;0.60;1.00;;;;;;6372953;22;20225;-91
2023/03/03 06:57:41;;;;;;;149.47;37.37;;;0.50;99.90;;;;;;6372180;22;20232;-91
2023/03/03 07:00:18;;;;;;;89.73;28.93;;;0.50;99.90;;;;;;6372188;22;20170;-91
2023/03/03 07:02:46;;;;;;;95.47;25.40;;;0.50;99.90;;;;;;6371460;22;20633;-90
2023/03/03 07:05:16;;;;;;;97.83;27.17;;;0.50;99.90;;;;;;6371702;22;20185;-91
2023/03/03 07:07:43;;;;;;;88.20;27.83;;;0.50;99.90;;;;;;6372710;22;20170;-90
2023/03/03 07:10:21;;;;;;;60.67;20.47;;;0.60;99.90;;;;;;6372508;22;20165;-90
2023/03/03 07:12:48;;;;;;;77.23;20.87;;;0.50;99.90;;;;;;6372253;22;20153;-92
2023/03/03 07:15:21;;;;;;;57.47;20.33;;;0.60;99.90;;;;;;6372307;22;20169;-91
2023/03/03 07:17:50;;;;;;;71.23;22.97;;;0.60;99.90;;;;;;6372720;22;20229;-91
2023/03/03 07:20:20;;;;;;;65.53;22.10;;;0.70;99.90;;;;;;6372566;22;20166;-91
2023/03/03 07:22:47;;;;;;;50.80;18.00;;;0.70;99.90;;;;;;6371702;22;20215;-91
2023/03/03 07:25:21;;;;;;;72.20;27.93;;;0.80;1.00;;;;;;6371472;22;20234;-91
2023/03/03 07:27:48;;;;;;;78.40;27.50;;;0.80;1.00;;;;;;6371271;22;20154;-90
2023/03/03 07:30:27;;;;;;;53.87;18.33;;;0.80;1.00;;;;;;6371736;22;20206;-90
2023/03/03 07:32:56;;;;;;;81.73;24.37;;;0.90;1.00;;;;;;6372384;22;20224;-92
2023/03/03 07:35:38;;;;;;;79.63;25.27;;;0.80;1.00;;;;;;6372034;22;20690;-90
2023/03/03 07:38:21;;;;;;;61.83;22.33;;;0.80;1.00;;;;;;6372265;22;20243;-91
2023/03/03 07:40:49;;;;;;;70.10;21.50;;;0.80;1.00;;;;;;6372460;22;20211;-91
2023/03/03 07:43:29;;;;;;;62.40;18.40;;;0.90;1.00;;;;;;6372421;22;20674;-92
2023/03/03 07:46:02;;;;;;;78.43;23.77;;;0.90;1.00;;;;;;6372754;22;20178;-91
2023/03/03 07:48:34;;;;;;;67.90;22.77;;;0.90;1.00;;;;;;6372366;22;20246;-93
2023/03/03 07:51:05;;;;;;;86.73;29.23;;;1.00;1.00;;;;;;6372691;22;20596;-93
2023/03/03 07:53:36;;;;;;;80.60;25.77;;;1.00;1.00;;;;;;6372960;22;20175;-91
2023/03/03 07:56:15;;;;;;;63.07;20.17;;;1.00;1.00;;;;;;6372124;22;20233;-91
2023/03/03 07:58:43;;;;;;;40.07;15.67;;;1.00;1.00;;;;;;6371831;22;20616;-90
2023/03/03 08:01:43;;;;;;;48.17;15.87;;;1.00;1.00;;;;;;6371697;22;20161;-90
2023/03/03 08:04:17;;;;;;;42.30;17.03;;;0.90;1.00;;;;;;6372315;22;20165;-92
2023/03/03 08:06:52;;;;;;;46.83;15.73;;;0.90;99.90;;;;;;6372537;22;20252;-91
2023/03/03 08:09:42;;;;;;;48.47;18.87;;;0.90;1.00;;;;;;6372287;22;20547;-91
2023/03/03 08:12:27;;;;;;;65.43;20.80;;;0.90;1.00;;;;;;6371795;22;20153;-91
2023/03/03 08:14:55;;;;;;;56.80;20.90;;;1.00;1.00;;;;;;6372445;22;20195;-91
2023/03/03 08:17:25;;;;;;;62.23;22.83;;;1.10;1.00;;;;;;6372327;22;20545;-91
2023/03/03 08:19:55;;;;;;;49.90;18.03;;;1.10;1.00;;;;;;6371964;22;20687;-92
2023/03/03 08:22:30;;;;;;;50.57;18.07;;;1.20;1.00;;;;;;6371691;22;20169;-91
2023/03/03 08:24:57;;;;;;;39.40;14.90;;;1.20;99.90;;;;;;6371430;22;20611;-91
2023/03/03 08:27:24;;;;;;;62.10;27.03;;;1.20;99.90;;;;;;6372083;22;20212;-92
2023/03/03 08:29:51;;;;;;;61.53;27.67;;;1.20;99.90;;;;;;6372049;22;20619;-91
2023/03/03 08:32:18;;;;;;;68.93;26.47;;;1.20;99.90;;;;;;6371157;22;20630;-91
2023/03/03 08:34:46;;;;;;;75.37;24.33;;;1.30;1.00;;;;;;6371424;22;20177;-91
2023/03/03 08:37:13;;;;;;;149.57;72.60;;;1.40;1.00;;;;;;6371223;22;20169;-90
2023/03/03 08:39:40;;;;;;;84.63;42.07;;;1.40;99.90;;;;;;6371534;22;20163;-91
2023/03/03 08:42:07;;;;;;;75.93;39.97;;;1.50;99.90;;;;;;6371503;22;20704;-91
2023/03/03 08:44:34;;;;;;;59.80;24.50;;;1.50;99.90;;;;;;6370796;22;20176;-90
2023/03/03 08:47:01;;;;;;;55.27;24.67;;;1.50;1.00;;;;;;6370982;22;20181;-91
2023/03/03 08:49:28;;;;;;;56.27;24.57;;;1.50;1.00;;;;;;6371296;22;20193;-91
2023/03/03 08:51:56;;;;;;;60.10;23.33;;;1.60;80.40;;;;;;6371213;22;20181;-91
2023/03/03 08:54:23;;;;;;;54.70;22.70;;;1.60;1.00;;;;;;6371306;22;20165;-90
2023/03/03 08:56:50;;;;;;;100.13;39.57;;;1.60;1.00;;;;;;6371543;22;20544;-90
2023/03/03 08:59:17;;;;;;;89.30;33.63;;;1.60;1.00;;;;;;6370999;22;20229;-91
2023/03/03 09:01:44;;;;;;;82.73;29.83;;;1.60;1.00;;;;;;6371509;22;20167;-91
2023/03/03 09:04:11;;;;;;;76.50;30.17;;;1.70;1.00;;;;;;6371740;22;20167;-91
2023/03/03 09:06:38;;;;;;;99.07;37.83;;;1.70;1.00;;;;;;6371184;22;20184;-90
2023/03/03 09:09:07;;;;;;;94.07;37.07;;;1.80;1.00;;;;;;6371172;22;20240;-91
2023/03/03 09:11:34;;;;;;;122.37;44.43;;;1.90;1.00;;;;;;6371514;22;20171;-90
2023/03/03 09:14:10;;;;;;;81.17;35.97;;;2.00;1.00;;;;;;6371500;22;20170;-90
2023/03/03 09:16:39;;;;;;;56.00;25.13;;;2.10;99.90;;;;;;6371503;22;20151;-91
2023/03/03 09:19:23;;;;;;;126.90;62.43;;;2.00;99.90;;;;;;6371671;22;20174;-90
2023/03/03 09:21:53;;;;;;;50.37;25.47;;;2.00;99.90;;;;;;6371544;22;20162;-90
2023/03/03 09:24:26;;;;;;;41.47;18.30;;;2.10;1.00;;;;;;6371256;22;20163;-91
2023/03/03 09:26:53;;;;;;;46.03;21.10;;;2.20;99.90;;;;;;6370946;22;20636;-91
2023/03/03 09:29:26;;;;;;;62.17;22.93;;;2.30;99.90;;;;;;6371103;22;20174;-92
2023/03/03 09:31:55;;;;;;;51.47;24.87;;;2.30;1.00;;;;;;6371408;22;20156;-91
2023/03/03 09:34:26;;;;;;;74.83;32.93;;;2.30;1.00;;;;;;6370498;22;20193;-92
2023/03/03 09:36:54;;;;;;;61.00;30.30;;;2.30;4.30;;;;;;6371330;22;20150;-91
2023/03/03 09:39:24;;;;;;;84.53;38.13;;;2.30;1.00;;;;;;6370842;22;20171;-90
2023/03/03 09:42:12;;;;;;;65.73;29.17;;;2.30;1.00;;;;;;6370835;22;20171;-90
2023/03/03 09:45:12;;;;;;;50.97;21.87;;;2.30;1.00;;;;;;6339153;22;20200;-90
2023/03/03 09:48:10;;;;;;;65.03;26.07;;;2.30;1.00;;;;;;6339101;22;20216;-89
2023/03/03 09:50:48;;;;;;;53.40;23.37;;;2.30;1.00;;;;;;6213205;23;20596;-90
2023/03/03 09:53:27;;;;;;;80.43;31.53;;;2.30;1.00;;;;;;6213349;23;20243;-89
2023/03/03 09:56:02;;;;;;;47.17;21.23;;;2.40;1.00;;;;;;6213047;23;20285;-90
2023/03/03 09:58:44;;;;;;;31.50;13.87;;;2.60;55.20;;;;;;6214525;23;20484;-90
2023/03/03 10:01:33;;;;;;;39.90;20.67;;;2.80;1.00;;;;;;6213555;23;20240;-93
2023/03/03 10:04:33;;;;;;;46.97;21.37;;;3.00;1.00;;;;;;6214391;23;20184;-94
2023/03/03 10:07:15;;;;;;;32.87;15.33;;;3.00;99.90;;;;;;6207159;23;20494;-95
2023/03/03 10:09:58;;;;;;;42.73;17.27;;;3.00;99.90;;;;;;6214932;23;20669;-95
2023/03/03 10:12:28;;;;;;;27.03;12.50;;;2.90;1.00;;;;;;6215181;23;20160;-96
2023/03/03 10:15:12;;;;;;;28.13;12.77;;;2.80;99.90;;;;;;6215287;23;20225;-95
2023/03/03 10:17:49;;;;;;;45.53;21.20;;;3.00;1.00;;;;;;6215245;23;20202;-94
2023/03/03 10:20:30;;;;;;;36.47;15.30;;;3.10;99.90;;;;;;6213519;23;20245;-93
2023/03/03 10:23:06;;;;;;;34.20;14.60;;;3.00;1.00;;;;;;6214394;23;20214;-92
2023/03/03 10:25:41;;;;;;;37.43;15.33;;;3.00;95.50;;;;;;6214590;23;20213;-90
2023/03/03 10:28:40;;;;;;;48.13;17.37;;;3.00;99.20;;;;;;6295044;22;20228;-94
2023/03/03 10:31:19;;;;;;;39.63;17.53;;;3.10;99.90;;;;;;6344002;22;20170;-93
2023/03/03 10:33:54;;;;;;;44.87;19.00;;;3.10;1.00;;;;;;6344626;22;20167;-93
2023/03/03 10:36:37;;;;;;;43.03;16.07;;;3.00;1.00;;;;;;6344654;22;20153;-93
2023/03/03 10:39:24;;;;;;;49.37;17.47;;;3.10;99.90;;;;;;6342902;22;20155;-92
2023/03/03 10:42:02;;;;;;;45.00;19.50;;;3.20;99.90;;;;;;6342065;22;20160;-91
2023/03/03 10:44:56;;;;;;;48.93;21.23;;;3.30;99.90;;;;;;6311537;22;20652;-90
2023/03/03 10:47:42;;;;;;;42.27;16.43;;;3.40;99.90;;;;;;6310316;22;20175;-91
2023/03/03 10:50:21;;;;;;;50.00;18.63;;;3.50;1.00;;;;;;6309346;22;20177;-91
2023/03/03 10:52:53;;;;;;;62.50;30.17;;;3.50;1.00;;;;;;6308977;22;20154;-91
2023/03/03 10:55:48;;;;;;;51.27;20.70;;;3.50;1.00;;;;;;6308091;22;20646;-92
2023/03/03 10:58:46;;;;;;;54.03;19.57;;;3.40;1.00;;;;;;6305891;22;20177;-91
2023/03/03 11:01:25;;;;;;;47.50;19.13;;;3.50;99.90;;;;;;6308045;22;20212;-91
2023/03/03 11:04:17;;;;;;;46.60;16.67;;;3.70;11.90;;;;;;6309839;22;20150;-91
2023/03/03 11:06:49;;;;;;;56.50;23.83;;;3.90;1.00;;;;;;6308906;22;20190;-90
2023/03/03 11:09:37;;;;;;;41.77;14.27;;;4.00;1.00;;;;;;6309291;22;20162;-90
2023/03/03 11:12:16;;;;;;;79.13;36.00;;;4.10;1.00;;;;;;6309837;22;20167;-91
2023/03/03 11:14:50;;;;;;;87.43;37.83;;;4.10;1.00;;;;;;6310001;22;20529;-90
2023/03/03 11:17:23;;;;;;;87.23;34.17;;;4.00;99.90;;;;;;6309288;22;20158;-91
2023/03/03 11:20:03;;;;;;;58.73;20.33;;;3.80;99.90;;;;;;6308840;22;20201;-88
2023/03/03 11:22:39;;;;;;;53.03;20.13;;;3.80;1.00;;;;;;6309315;22;20151;-89
2023/03/03 11:25:23;;;;;;;47.80;18.70;;;3.90;1.00;;;;;;6308816;22;20211;-89
2023/03/03 11:28:21;;;;;;;55.80;23.40;;;4.20;1.00;;;;;;6308481;22;20521;-89
2023/03/03 11:31:07;;;;;;;50.77;18.60;;;4.20;99.90;;;;;;6309124;22;20158;-89
2023/03/03 11:33:40;;;;;;;81.13;30.00;;;4.10;99.90;;;;;;6308643;22;20155;-89
2023/03/03 11:36:17;;;;;;;56.60;20.70;;;4.10;1.00;;;;;;6308747;22;20196;-89
2023/03/03 11:38:57;;;;;;;49.10;18.63;;;4.20;1.00;;;;;;6308900;22;20159;-89
2023/03/03 11:41:32;;;;;;;51.20;22.43;;;4.40;1.00;;;;;;6308796;22;20182;-89
2023/03/03 11:44:08;;;;;;;105.23;44.63;;;4.50;1.00;;;;;;6358502;22;20193;-89
2023/03/03 11:46:41;;;;;;;45.07;17.83;;;4.50;99.90;;;;;;6371830;22;20705;-89
2023/03/03 11:49:16;;;;;;;52.97;21.70;;;4.60;1.00;;;;;;6370785;22;20481;-89
2023/03/03 11:51:53;;;;;;;74.90;32.13;;;4.60;99.90;;;;;;6371224;22;20236;-89
2023/03/03 11:54:24;;;;;;;39.00;18.30;;;4.60;99.90;;;;;;6371253;22;20153;-89
2023/03/03 11:56:55;;;;;;;36.33;17.13;;;4.50;99.90;;;;;;6371410;22;20150;-89
2023/03/03 11:59:47;;;;;;;45.67;21.03;;;4.60;99.90;;;;;;6371298;22;20157;-89
2023/03/03 12:02:45;;;;;;;55.00;26.77;;;4.60;99.90;;;;;;6370704;22;20149;-89
2023/03/03 12:05:18;;;;;;;54.63;27.67;;;4.50;57.70;;;;;;6371732;22;20199;-90
2023/03/03 12:07:54;;;;;;;56.13;25.60;;;4.40;99.90;;;;;;6371939;22;20224;-89
2023/03/03 12:10:27;;;;;;;54.07;24.77;;;4.40;99.90;;;;;;6370900;22;20206;-89
2023/03/03 12:13:02;;;;;;;44.27;20.50;;;4.40;99.90;;;;;;6371367;22;20158;-88
2023/03/03 12:15:38;;;;;;;41.30;20.77;;;4.50;99.90;;;;;;6371351;22;20149;-89
2023/03/03 12:18:40;;;;;;;30.30;14.97;;;4.60;99.90;;;;;;6370986;22;20176;-89
2023/03/03 12:21:22;;;;;;;35.23;17.53;;;4.70;1.00;;;;;;6371361;22;20682;-89
2023/03/03 12:24:12;;;;;;;30.00;13.63;;;4.90;99.90;;;;;;6370872;22;20203;-89
2023/03/03 12:26:48;;;;;;;30.47;13.10;;;4.80;18.00;;;;;;6371296;22;20169;-89
2023/03/03 12:29:27;;;;;;;38.20;21.33;;;4.90;99.90;;;;;;6369991;22;20157;-89
2023/03/03 12:32:04;;;;;;;41.30;20.47;;;4.90;54.70;;;;;;6370988;22;20154;-89
2023/03/03 12:34:38;;;;;;;20.50;10.50;;;4.90;1.00;;;;;;6370504;22;20214;-89
2023/03/03 12:37:28;;;;;;;29.03;12.70;;;4.80;1.00;;;;;;6371316;22;20149;-89
2023/03/03 12:40:05;;;;;;;33.73;17.23;;;4.60;1.00;;;;;;6371374;22;20155;-89
2023/03/03 12:42:44;;;;;;;33.77;17.07;;;4.60;83.80;;;;;;6371077;22;20193;-88
2023/03/03 12:45:24;;;;;;;27.47;14.07;;;4.60;99.90;;;;;;6371046;22;20165;-89
2023/03/03 12:47:55;;;;;;;28.53;13.97;;;4.60;1.00;;;;;;6370263;22;20184;-89
2023/03/03 12:50:34;;;;;;;38.20;20.20;;;4.60;1.00;;;;;;6370807;22;20158;-88
2023/03/03 12:53:11;;;;;;;30.90;15.93;;;4.60;1.00;;;;;;6370197;22;20221;-89
2023/03/03 12:55:48;;;;;;;26.27;14.63;;;4.70;1.00;;;;;;6371332;22;20202;-88
2023/03/03 12:58:28;;;;;;;18.70;10.30;;;4.60;1.00;;;;;;6371042;22;20203;-89
2023/03/03 13:01:04;;;;;;;29.50;13.43;;;4.60;1.00;;;;;;6371308;22;20206;-90
2023/03/03 13:03:39;;;;;;;29.97;14.20;;;4.60;1.00;;;;;;6371040;22;20150;-89
2023/03/03 13:06:14;;;;;;;32.87;20.17;;;4.60;1.00;;;;;;6370857;22;20150;-89
2023/03/03 13:08:56;;;;;;;22.83;12.03;;;4.60;1.00;;;;;;6371195;22;20206;-89